Port Austin, MI (48467)

1:49 AM EDT on August 28, 2016 (GMT -0400)
Lakeshore Weather | | Change Station

Elev 600 ft 44.04 °N, 83.00 °W | Updated 59 seconds ago

Mostly Cloudy
Mostly Cloudy
68.4 °F
Feels Like 68.4 °F
N
0.0
Wind Variable Wind from South

Today
High -- | Low -- °F
--% Chance of Precip.
Yesterday
High -- | Low -- °F
Precip. -- in
Pressure 30.11 in
Visibility 4.0 miles
Clouds Mostly Cloudy 500 ft
Dew Point 66 °F
Humidity 93%
Rainfall 0.00 in
Snow Depth Not available.
6:51 AM 8:13 PM
Waning Crescent, 18% visible
METAR KBAX 280541Z AUTO 20007KT 4SM BR BKN005 20/20 A3011 RMK AO2
Pressure 30.11 in
Visibility 4.0 miles
Clouds Mostly Cloudy 500 ft
Dew Point 66 °F
Humidity 93%
Rainfall 0.00 in
Snow Depth Not available.
6:51 AM 8:13 PM
Waning Crescent, 18% visible
METAR KBAX 280541Z AUTO 20007KT 4SM BR BKN005 20/20 A3011 RMK AO2

10-Day Weather Forecast

Almanac

Astronomy

Aug. 28, 2016 Rise Set
Actual Time
Civil Twilight
Nautical Twilight
Astronomical Twilight
Moon
Length of Visible Light
Length of Day
Tomorrow will be .
, % of the Moon is Illuminated

Today's Extremes

State Highs State Lows

Community

WunderPhotos

Upload Photos

1,935,533 photos uploaded!

WunderBlog® & News

Nearby

Air Quality

  Air Quality AQ Index Pollutant
Not available.

Snow Depth

Station Depth Elevation

Earthquake Activity

City Distance Mag. Time & Date
Minimum magnitude displayed is 2.5.

Coastal Water Temperatures

Place Temperature

Stations

Nearby Weather Stations

Station Location Temp. Windchill Dew Point Humidity Wind Precip. Elev Updated Type
                   

Watches & Warnings

There are currently no watches in effect.